sensor_id;sensor_type;location;lat;lon;timestamp;P1;durP1;ratioP1;P2;durP2;ratioP2
813;SDS011;389;48.710;9.392;2023-05-07T00:02:20;5.80;;;4.80;;
813;SDS011;389;48.710;9.392;2023-05-07T00:04:46;6.97;;;5.40;;
813;SDS011;389;48.710;9.392;2023-05-07T00:07:11;4.80;;;3.93;;
813;SDS011;389;48.710;9.392;2023-05-07T00:09:37;5.20;;;4.70;;
813;SDS011;389;48.710;9.392;2023-05-07T00:12:02;10.90;;;4.67;;
813;SDS011;389;48.710;9.392;2023-05-07T00:14:28;6.57;;;4.43;;
813;SDS011;389;48.710;9.392;2023-05-07T00:16:54;5.40;;;4.60;;
813;SDS011;389;48.710;9.392;2023-05-07T00:19:20;13.10;;;4.50;;
813;SDS011;389;48.710;9.392;2023-05-07T00:21:46;5.10;;;4.60;;
813;SDS011;389;48.710;9.392;2023-05-07T00:24:11;5.43;;;4.40;;
813;SDS011;389;48.710;9.392;2023-05-07T00:26:37;6.93;;;4.80;;
813;SDS011;389;48.710;9.392;2023-05-07T00:29:02;4.87;;;4.37;;
813;SDS011;389;48.710;9.392;2023-05-07T00:31:28;6.47;;;4.63;;
813;SDS011;389;48.710;9.392;2023-05-07T00:33:54;4.90;;;4.40;;
813;SDS011;389;48.710;9.392;2023-05-07T00:36:19;5.73;;;4.50;;
813;SDS011;389;48.710;9.392;2023-05-07T00:38:45;5.63;;;4.60;;
813;SDS011;389;48.710;9.392;2023-05-07T00:44:05;5.00;;;4.20;;
813;SDS011;389;48.710;9.392;2023-05-07T00:46:31;6.03;;;4.47;;
813;SDS011;389;48.710;9.392;2023-05-07T00:48:57;5.90;;;4.60;;
813;SDS011;389;48.710;9.392;2023-05-07T00:51:25;6.57;;;4.80;;
813;SDS011;389;48.710;9.392;2023-05-07T00:53:54;6.30;;;4.70;;
813;SDS011;389;48.710;9.392;2023-05-07T00:56:21;7.83;;;5.60;;
813;SDS011;389;48.710;9.392;2023-05-07T00:58:47;8.67;;;4.73;;
813;SDS011;389;48.710;9.392;2023-05-07T01:01:13;6.40;;;5.20;;
813;SDS011;389;48.710;9.392;2023-05-07T01:03:40;8.00;;;5.80;;
813;SDS011;389;48.710;9.392;2023-05-07T01:06:06;6.77;;;5.40;;
813;SDS011;389;48.710;9.392;2023-05-07T01:08:39;5.63;;;4.77;;
813;SDS011;389;48.710;9.392;2023-05-07T01:11:06;7.90;;;5.23;;
813;SDS011;389;48.710;9.392;2023-05-07T01:13:33;7.70;;;4.63;;
813;SDS011;389;48.710;9.392;2023-05-07T01:16:00;5.23;;;4.73;;
813;SDS011;389;48.710;9.392;2023-05-07T01:18:25;6.63;;;4.53;;
813;SDS011;389;48.710;9.392;2023-05-07T01:20:51;6.70;;;5.73;;
813;SDS011;389;48.710;9.392;2023-05-07T01:23:17;6.37;;;4.93;;
813;SDS011;389;48.710;9.392;2023-05-07T01:25:50;6.40;;;4.80;;
813;SDS011;389;48.710;9.392;2023-05-07T01:28:19;5.37;;;4.50;;
813;SDS011;389;48.710;9.392;2023-05-07T01:30:46;5.77;;;4.43;;
813;SDS011;389;48.710;9.392;2023-05-07T01:33:15;5.47;;;4.57;;
813;SDS011;389;48.710;9.392;2023-05-07T01:35:45;6.50;;;4.50;;
813;SDS011;389;48.710;9.392;2023-05-07T01:38:13;6.33;;;4.80;;
813;SDS011;389;48.710;9.392;2023-05-07T01:40:39;7.77;;;4.93;;
813;SDS011;389;48.710;9.392;2023-05-07T01:43:05;5.67;;;5.00;;
813;SDS011;389;48.710;9.392;2023-05-07T01:45:31;4.47;;;4.03;;
813;SDS011;389;48.710;9.392;2023-05-07T01:47:58;5.63;;;4.30;;
813;SDS011;389;48.710;9.392;2023-05-07T01:50:25;4.90;;;4.40;;
813;SDS011;389;48.710;9.392;2023-05-07T01:52:50;6.27;;;4.80;;
813;SDS011;389;48.710;9.392;2023-05-07T01:55:16;4.93;;;4.53;;
813;SDS011;389;48.710;9.392;2023-05-07T01:57:43;6.03;;;4.20;;
813;SDS011;389;48.710;9.392;2023-05-07T02:00:08;8.30;;;3.93;;
813;SDS011;389;48.710;9.392;2023-05-07T02:02:34;5.63;;;4.73;;
813;SDS011;389;48.710;9.392;2023-05-07T02:05:00;5.43;;;4.93;;
813;SDS011;389;48.710;9.392;2023-05-07T02:07:27;6.33;;;4.80;;
813;SDS011;389;48.710;9.392;2023-05-07T02:09:53;4.83;;;4.37;;
813;SDS011;389;48.710;9.392;2023-05-07T02:12:20;6.13;;;4.40;;
813;SDS011;389;48.710;9.392;2023-05-07T02:14:46;5.67;;;5.00;;
813;SDS011;389;48.710;9.392;2023-05-07T02:17:11;5.10;;;4.43;;
813;SDS011;389;48.710;9.392;2023-05-07T02:19:37;9.77;;;4.40;;
813;SDS011;389;48.710;9.392;2023-05-07T02:22:10;4.70;;;4.00;;
813;SDS011;389;48.710;9.392;2023-05-07T02:24:36;5.60;;;4.73;;
813;SDS011;389;48.710;9.392;2023-05-07T02:27:01;7.33;;;4.87;;
813;SDS011;389;48.710;9.392;2023-05-07T02:29:28;11.47;;;5.00;;
813;SDS011;389;48.710;9.392;2023-05-07T02:31:54;5.73;;;5.23;;
813;SDS011;389;48.710;9.392;2023-05-07T02:34:20;7.20;;;4.90;;
813;SDS011;389;48.710;9.392;2023-05-07T02:36:46;6.03;;;4.83;;
813;SDS011;389;48.710;9.392;2023-05-07T02:39:12;5.53;;;4.50;;
813;SDS011;389;48.710;9.392;2023-05-07T02:41:38;5.53;;;4.43;;
813;SDS011;389;48.710;9.392;2023-05-07T02:44:03;5.13;;;4.60;;
813;SDS011;389;48.710;9.392;2023-05-07T02:46:29;6.13;;;4.73;;
813;SDS011;389;48.710;9.392;2023-05-07T02:48:55;5.10;;;4.60;;
813;SDS011;389;48.710;9.392;2023-05-07T02:51:21;8.60;;;4.87;;
813;SDS011;389;48.710;9.392;2023-05-07T02:53:47;7.90;;;4.90;;
813;SDS011;389;48.710;9.392;2023-05-07T02:56:13;8.23;;;4.77;;
813;SDS011;389;48.710;9.392;2023-05-07T02:58:39;6.30;;;5.10;;
813;SDS011;389;48.710;9.392;2023-05-07T03:01:05;7.73;;;4.90;;
813;SDS011;389;48.710;9.392;2023-05-07T03:03:31;7.43;;;5.30;;
813;SDS011;389;48.710;9.392;2023-05-07T03:05:57;7.00;;;5.00;;
813;SDS011;389;48.710;9.392;2023-05-07T03:08:22;9.10;;;6.10;;
813;SDS011;389;48.710;9.392;2023-05-07T03:10:49;6.30;;;4.60;;
813;SDS011;389;48.710;9.392;2023-05-07T03:13:14;6.13;;;5.10;;
813;SDS011;389;48.710;9.392;2023-05-07T03:15:40;7.27;;;5.03;;
813;SDS011;389;48.710;9.392;2023-05-07T03:18:05;7.30;;;5.30;;
813;SDS011;389;48.710;9.392;2023-05-07T03:20:36;8.20;;;5.60;;
813;SDS011;389;48.710;9.392;2023-05-07T03:23:02;6.80;;;5.67;;
813;SDS011;389;48.710;9.392;2023-05-07T03:25:28;6.73;;;5.10;;
813;SDS011;389;48.710;9.392;2023-05-07T03:27:55;6.60;;;5.33;;
813;SDS011;389;48.710;9.392;2023-05-07T03:30:21;5.60;;;4.40;;
813;SDS011;389;48.710;9.392;2023-05-07T03:32:46;11.07;;;6.10;;
813;SDS011;389;48.710;9.392;2023-05-07T03:35:12;6.53;;;5.20;;
813;SDS011;389;48.710;9.392;2023-05-07T03:37:38;6.80;;;5.07;;
813;SDS011;389;48.710;9.392;2023-05-07T03:40:04;9.27;;;5.50;;
813;SDS011;389;48.710;9.392;2023-05-07T03:42:31;7.50;;;5.70;;
813;SDS011;389;48.710;9.392;2023-05-07T03:44:56;6.80;;;5.00;;
813;SDS011;389;48.710;9.392;2023-05-07T03:47:22;8.70;;;5.70;;
813;SDS011;389;48.710;9.392;2023-05-07T03:49:47;9.87;;;5.80;;
813;SDS011;389;48.710;9.392;2023-05-07T03:52:14;7.50;;;5.40;;
813;SDS011;389;48.710;9.392;2023-05-07T03:54:43;7.10;;;5.00;;
813;SDS011;389;48.710;9.392;2023-05-07T03:57:08;5.80;;;5.03;;
813;SDS011;389;48.710;9.392;2023-05-07T03:59:34;6.77;;;5.40;;
813;SDS011;389;48.710;9.392;2023-05-07T04:01:59;6.33;;;5.27;;
813;SDS011;389;48.710;9.392;2023-05-07T04:04:25;7.67;;;5.30;;
813;SDS011;389;48.710;9.392;2023-05-07T04:06:50;7.37;;;4.90;;
813;SDS011;389;48.710;9.392;2023-05-07T04:09:16;7.40;;;4.93;;
813;SDS011;389;48.710;9.392;2023-05-07T04:11:42;7.30;;;5.20;;
813;SDS011;389;48.710;9.392;2023-05-07T04:14:07;6.70;;;5.40;;
813;SDS011;389;48.710;9.392;2023-05-07T04:16:34;6.83;;;5.43;;
813;SDS011;389;48.710;9.392;2023-05-07T04:19:00;8.13;;;5.60;;
813;SDS011;389;48.710;9.392;2023-05-07T04:21:25;7.47;;;5.43;;
813;SDS011;389;48.710;9.392;2023-05-07T04:23:51;6.10;;;5.37;;
813;SDS011;389;48.710;9.392;2023-05-07T04:26:16;6.00;;;5.40;;
813;SDS011;389;48.710;9.392;2023-05-07T04:28:42;7.90;;;5.97;;
813;SDS011;389;48.710;9.392;2023-05-07T04:31:08;7.83;;;5.50;;
813;SDS011;389;48.710;9.392;2023-05-07T04:33:33;7.63;;;5.70;;
813;SDS011;389;48.710;9.392;2023-05-07T04:36:02;5.93;;;5.30;;
813;SDS011;389;48.710;9.392;2023-05-07T04:38:32;7.40;;;5.40;;
813;SDS011;389;48.710;9.392;2023-05-07T04:41:02;7.07;;;5.17;;
813;SDS011;389;48.710;9.392;2023-05-07T04:43:36;6.83;;;5.40;;
813;SDS011;389;48.710;9.392;2023-05-07T04:46:02;7.47;;;6.03;;
813;SDS011;389;48.710;9.392;2023-05-07T04:48:27;7.20;;;6.30;;
813;SDS011;389;48.710;9.392;2023-05-07T04:50:53;8.03;;;6.00;;
813;SDS011;389;48.710;9.392;2023-05-07T04:53:19;14.13;;;5.60;;
813;SDS011;389;48.710;9.392;2023-05-07T04:55:45;7.23;;;5.23;;
813;SDS011;389;48.710;9.392;2023-05-07T04:58:11;6.40;;;5.20;;
813;SDS011;389;48.710;9.392;2023-05-07T05:00:37;6.33;;;4.93;;
813;SDS011;389;48.710;9.392;2023-05-07T05:03:04;5.00;;;4.50;;
813;SDS011;389;48.710;9.392;2023-05-07T05:05:30;10.27;;;4.87;;
813;SDS011;389;48.710;9.392;2023-05-07T05:07:56;5.73;;;5.20;;
813;SDS011;389;48.710;9.392;2023-05-07T05:10:22;5.37;;;4.87;;
813;SDS011;389;48.710;9.392;2023-05-07T05:12:47;5.40;;;4.90;;
813;SDS011;389;48.710;9.392;2023-05-07T05:15:13;5.23;;;4.73;;
813;SDS011;389;48.710;9.392;2023-05-07T05:17:38;6.77;;;4.93;;
813;SDS011;389;48.710;9.392;2023-05-07T05:20:05;6.47;;;5.50;;
813;SDS011;389;48.710;9.392;2023-05-07T05:22:31;5.13;;;4.63;;
813;SDS011;389;48.710;9.392;2023-05-07T05:24:57;7.07;;;5.30;;
813;SDS011;389;48.710;9.392;2023-05-07T05:27:22;5.57;;;4.57;;
813;SDS011;389;48.710;9.392;2023-05-07T05:29:48;4.77;;;4.37;;
813;SDS011;389;48.710;9.392;2023-05-07T05:32:13;7.80;;;4.27;;
813;SDS011;389;48.710;9.392;2023-05-07T05:34:39;5.40;;;4.73;;
813;SDS011;389;48.710;9.392;2023-05-07T05:37:04;5.30;;;4.33;;
813;SDS011;389;48.710;9.392;2023-05-07T05:39:34;7.47;;;4.40;;
813;SDS011;389;48.710;9.392;2023-05-07T05:42:00;4.20;;;3.90;;
813;SDS011;389;48.710;9.392;2023-05-07T05:44:26;4.07;;;3.77;;
813;SDS011;389;48.710;9.392;2023-05-07T05:46:51;6.53;;;4.43;;
813;SDS011;389;48.710;9.392;2023-05-07T05:49:20;5.10;;;3.53;;
813;SDS011;389;48.710;9.392;2023-05-07T05:51:45;5.80;;;4.17;;
813;SDS011;389;48.710;9.392;2023-05-07T05:54:11;4.43;;;4.03;;
813;SDS011;389;48.710;9.392;2023-05-07T05:56:37;6.33;;;4.33;;
813;SDS011;389;48.710;9.392;2023-05-07T05:59:02;4.30;;;3.90;;
813;SDS011;389;48.710;9.392;2023-05-07T06:01:28;4.30;;;3.90;;
813;SDS011;389;48.710;9.392;2023-05-07T06:03:54;4.00;;;3.47;;
813;SDS011;389;48.710;9.392;2023-05-07T06:09:12;4.20;;;3.80;;
813;SDS011;389;48.710;9.392;2023-05-07T06:11:38;3.70;;;3.23;;
813;SDS011;389;48.710;9.392;2023-05-07T06:14:04;3.50;;;3.20;;
813;SDS011;389;48.710;9.392;2023-05-07T06:16:38;4.23;;;3.83;;
813;SDS011;389;48.710;9.392;2023-05-07T06:19:03;4.80;;;4.33;;
813;SDS011;389;48.710;9.392;2023-05-07T06:24:01;4.60;;;4.20;;
813;SDS011;389;48.710;9.392;2023-05-07T06:26:27;3.97;;;3.67;;
813;SDS011;389;48.710;9.392;2023-05-07T06:28:54;3.80;;;3.50;;
813;SDS011;389;48.710;9.392;2023-05-07T06:31:21;4.93;;;4.40;;
813;SDS011;389;48.710;9.392;2023-05-07T06:33:47;4.70;;;4.00;;
813;SDS011;389;48.710;9.392;2023-05-07T06:36:13;4.70;;;3.43;;
813;SDS011;389;48.710;9.392;2023-05-07T06:38:39;4.10;;;3.70;;
813;SDS011;389;48.710;9.392;2023-05-07T06:41:05;4.10;;;3.57;;
813;SDS011;389;48.710;9.392;2023-05-07T06:43:31;3.93;;;3.53;;
813;SDS011;389;48.710;9.392;2023-05-07T06:45:57;4.00;;;3.60;;
813;SDS011;389;48.710;9.392;2023-05-07T06:48:23;4.70;;;4.00;;
813;SDS011;389;48.710;9.392;2023-05-07T06:50:48;4.50;;;4.00;;
813;SDS011;389;48.710;9.392;2023-05-07T06:53:14;4.30;;;3.60;;
813;SDS011;389;48.710;9.392;2023-05-07T06:55:39;3.90;;;3.50;;
813;SDS011;389;48.710;9.392;2023-05-07T06:58:06;4.30;;;3.90;;
813;SDS011;389;48.710;9.392;2023-05-07T07:00:32;4.83;;;3.83;;
813;SDS011;389;48.710;9.392;2023-05-07T07:02:57;4.80;;;3.93;;
813;SDS011;389;48.710;9.392;2023-05-07T07:05:24;4.13;;;3.73;;
813;SDS011;389;48.710;9.392;2023-05-07T07:07:50;4.00;;;3.60;;
813;SDS011;389;48.710;9.392;2023-05-07T07:10:20;4.37;;;3.63;;
813;SDS011;389;48.710;9.392;2023-05-07T07:12:46;4.13;;;3.70;;
813;SDS011;389;48.710;9.392;2023-05-07T07:15:13;6.03;;;3.80;;
813;SDS011;389;48.710;9.392;2023-05-07T07:17:38;3.80;;;3.50;;
813;SDS011;389;48.710;9.392;2023-05-07T07:20:04;4.80;;;3.73;;
813;SDS011;389;48.710;9.392;2023-05-07T07:22:30;4.50;;;4.10;;
813;SDS011;389;48.710;9.392;2023-05-07T07:24:56;4.20;;;3.80;;
813;SDS011;389;48.710;9.392;2023-05-07T07:27:21;5.03;;;3.43;;
813;SDS011;389;48.710;9.392;2023-05-07T07:32:17;4.07;;;3.47;;
813;SDS011;389;48.710;9.392;2023-05-07T07:34:43;5.20;;;3.70;;
813;SDS011;389;48.710;9.392;2023-05-07T07:37:08;3.90;;;3.50;;
813;SDS011;389;48.710;9.392;2023-05-07T07:42:09;3.83;;;3.53;;
813;SDS011;389;48.710;9.392;2023-05-07T07:44:35;3.47;;;3.03;;
813;SDS011;389;48.710;9.392;2023-05-07T07:47:04;3.20;;;2.90;;
813;SDS011;389;48.710;9.392;2023-05-07T07:49:30;3.40;;;3.20;;
813;SDS011;389;48.710;9.392;2023-05-07T07:51:56;3.90;;;3.20;;
813;SDS011;389;48.710;9.392;2023-05-07T07:54:24;3.10;;;2.90;;
813;SDS011;389;48.710;9.392;2023-05-07T07:56:50;3.67;;;3.30;;
813;SDS011;389;48.710;9.392;2023-05-07T07:59:15;3.67;;;3.23;;
813;SDS011;389;48.710;9.392;2023-05-07T08:01:43;6.00;;;3.83;;
813;SDS011;389;48.710;9.392;2023-05-07T08:04:09;3.57;;;3.27;;
813;SDS011;389;48.710;9.392;2023-05-07T08:06:35;3.70;;;3.40;;
813;SDS011;389;48.710;9.392;2023-05-07T08:09:02;4.00;;;3.60;;
813;SDS011;389;48.710;9.392;2023-05-07T08:11:28;3.90;;;3.60;;
813;SDS011;389;48.710;9.392;2023-05-07T08:13:54;3.87;;;3.57;;
813;SDS011;389;48.710;9.392;2023-05-07T08:16:21;3.40;;;3.10;;
813;SDS011;389;48.710;9.392;2023-05-07T08:18:46;3.53;;;3.23;;
813;SDS011;389;48.710;9.392;2023-05-07T08:21:12;3.60;;;3.30;;
813;SDS011;389;48.710;9.392;2023-05-07T08:23:37;4.30;;;3.90;;
813;SDS011;389;48.710;9.392;2023-05-07T08:26:03;3.60;;;3.30;;
813;SDS011;389;48.710;9.392;2023-05-07T08:28:28;3.43;;;3.13;;
813;SDS011;389;48.710;9.392;2023-05-07T08:30:54;4.23;;;3.93;;
813;SDS011;389;48.710;9.392;2023-05-07T08:33:21;3.80;;;3.50;;
813;SDS011;389;48.710;9.392;2023-05-07T08:35:47;4.13;;;3.83;;
813;SDS011;389;48.710;9.392;2023-05-07T08:38:12;7.67;;;4.27;;
813;SDS011;389;48.710;9.392;2023-05-07T08:40:38;8.37;;;6.77;;
813;SDS011;389;48.710;9.392;2023-05-07T08:43:06;5.10;;;4.13;;
813;SDS011;389;48.710;9.392;2023-05-07T08:45:32;4.90;;;4.50;;
813;SDS011;389;48.710;9.392;2023-05-07T08:48:00;5.53;;;5.03;;
813;SDS011;389;48.710;9.392;2023-05-07T08:50:28;4.47;;;3.80;;
813;SDS011;389;48.710;9.392;2023-05-07T08:52:54;3.97;;;3.60;;
813;SDS011;389;48.710;9.392;2023-05-07T08:55:21;4.43;;;4.00;;
813;SDS011;389;48.710;9.392;2023-05-07T08:57:48;4.07;;;3.67;;
813;SDS011;389;48.710;9.392;2023-05-07T09:00:13;3.80;;;3.50;;
813;SDS011;389;48.710;9.392;2023-05-07T09:02:39;4.70;;;4.20;;
813;SDS011;389;48.710;9.392;2023-05-07T09:05:05;4.50;;;4.10;;
813;SDS011;389;48.710;9.392;2023-05-07T09:07:31;4.17;;;3.87;;
813;SDS011;389;48.710;9.392;2023-05-07T09:09:57;4.07;;;3.60;;
813;SDS011;389;48.710;9.392;2023-05-07T09:12:23;3.83;;;3.43;;
813;SDS011;389;48.710;9.392;2023-05-07T09:14:48;4.20;;;3.40;;
813;SDS011;389;48.710;9.392;2023-05-07T09:17:15;4.03;;;3.43;;
813;SDS011;389;48.710;9.392;2023-05-07T09:19:41;3.43;;;3.23;;
813;SDS011;389;48.710;9.392;2023-05-07T09:22:09;3.50;;;3.30;;
813;SDS011;389;48.710;9.392;2023-05-07T09:24:35;3.20;;;3.00;;
813;SDS011;389;48.710;9.392;2023-05-07T09:27:03;3.80;;;3.47;;
813;SDS011;389;48.710;9.392;2023-05-07T09:29:29;3.90;;;3.60;;
813;SDS011;389;48.710;9.392;2023-05-07T09:32:00;3.30;;;3.10;;
813;SDS011;389;48.710;9.392;2023-05-07T09:34:26;3.50;;;3.20;;
813;SDS011;389;48.710;9.392;2023-05-07T09:36:52;3.50;;;3.30;;
813;SDS011;389;48.710;9.392;2023-05-07T09:39:18;3.80;;;3.50;;
813;SDS011;389;48.710;9.392;2023-05-07T09:41:45;4.00;;;3.70;;
813;SDS011;389;48.710;9.392;2023-05-07T09:44:12;4.70;;;4.30;;
813;SDS011;389;48.710;9.392;2023-05-07T09:46:39;7.80;;;4.27;;
813;SDS011;389;48.710;9.392;2023-05-07T09:49:10;3.87;;;3.57;;
813;SDS011;389;48.710;9.392;2023-05-07T09:51:45;4.20;;;3.63;;
813;SDS011;389;48.710;9.392;2023-05-07T09:54:14;3.90;;;3.60;;
813;SDS011;389;48.710;9.392;2023-05-07T09:56:45;4.03;;;3.80;;
813;SDS011;389;48.710;9.392;2023-05-07T09:59:13;5.20;;;3.97;;
813;SDS011;389;48.710;9.392;2023-05-07T10:01:41;3.40;;;3.20;;
813;SDS011;389;48.710;9.392;2023-05-07T10:04:07;3.13;;;2.80;;
813;SDS011;389;48.710;9.392;2023-05-07T10:06:34;3.20;;;2.90;;
813;SDS011;389;48.710;9.392;2023-05-07T10:09:00;3.10;;;2.90;;
813;SDS011;389;48.710;9.392;2023-05-07T10:11:27;3.63;;;3.30;;
813;SDS011;389;48.710;9.392;2023-05-07T10:13:53;4.20;;;3.40;;
813;SDS011;389;48.710;9.392;2023-05-07T10:16:19;3.90;;;3.60;;
813;SDS011;389;48.710;9.392;2023-05-07T10:18:46;4.33;;;3.80;;
813;SDS011;389;48.710;9.392;2023-05-07T10:21:20;3.07;;;2.87;;
813;SDS011;389;48.710;9.392;2023-05-07T10:23:55;3.93;;;3.10;;
813;SDS011;389;48.710;9.392;2023-05-07T10:27:02;3.30;;;3.10;;
813;SDS011;389;48.710;9.392;2023-05-07T10:34:40;2.73;;;2.53;;
813;SDS011;389;48.710;9.392;2023-05-07T10:37:09;4.20;;;2.90;;
813;SDS011;389;48.710;9.392;2023-05-07T10:39:35;2.70;;;2.50;;
813;SDS011;389;48.710;9.392;2023-05-07T10:42:08;3.47;;;3.27;;
813;SDS011;389;48.710;9.392;2023-05-07T10:44:38;3.23;;;3.03;;
813;SDS011;389;48.710;9.392;2023-05-07T10:49:34;4.47;;;3.30;;
813;SDS011;389;48.710;9.392;2023-05-07T10:52:21;3.10;;;2.90;;
813;SDS011;389;48.710;9.392;2023-05-07T10:57:39;3.37;;;3.07;;
813;SDS011;389;48.710;9.392;2023-05-07T11:00:47;3.30;;;3.00;;
813;SDS011;389;48.710;9.392;2023-05-07T11:05:27;2.50;;;2.40;;
813;SDS011;389;48.710;9.392;2023-05-07T11:07:58;2.33;;;2.13;;
813;SDS011;389;48.710;9.392;2023-05-07T11:13:15;3.23;;;2.60;;
813;SDS011;389;48.710;9.392;2023-05-07T11:15:42;2.60;;;2.40;;
813;SDS011;389;48.710;9.392;2023-05-07T11:18:12;2.90;;;2.70;;
813;SDS011;389;48.710;9.392;2023-05-07T11:20:45;3.07;;;2.83;;
813;SDS011;389;48.710;9.392;2023-05-07T11:26:07;2.30;;;2.07;;
813;SDS011;389;48.710;9.392;2023-05-07T11:28:37;2.60;;;2.40;;
813;SDS011;389;48.710;9.392;2023-05-07T11:31:04;2.60;;;2.40;;
813;SDS011;389;48.710;9.392;2023-05-07T11:33:30;2.50;;;2.30;;
813;SDS011;389;48.710;9.392;2023-05-07T11:35:56;2.80;;;2.60;;
813;SDS011;389;48.710;9.392;2023-05-07T11:38:23;2.80;;;2.60;;
813;SDS011;389;48.710;9.392;2023-05-07T11:43:16;4.20;;;2.40;;
813;SDS011;389;48.710;9.392;2023-05-07T11:45:41;3.10;;;2.60;;
813;SDS011;389;48.710;9.392;2023-05-07T11:48:07;2.70;;;2.50;;
813;SDS011;389;48.710;9.392;2023-05-07T11:50:33;2.87;;;2.67;;
813;SDS011;389;48.710;9.392;2023-05-07T11:52:58;3.10;;;2.30;;
813;SDS011;389;48.710;9.392;2023-05-07T11:55:24;2.53;;;2.40;;
813;SDS011;389;48.710;9.392;2023-05-07T11:57:51;3.53;;;2.93;;
813;SDS011;389;48.710;9.392;2023-05-07T12:00:16;2.97;;;2.67;;
813;SDS011;389;48.710;9.392;2023-05-07T12:02:43;2.97;;;2.77;;
813;SDS011;389;48.710;9.392;2023-05-07T12:05:10;3.03;;;2.73;;
813;SDS011;389;48.710;9.392;2023-05-07T12:07:36;3.23;;;2.73;;
813;SDS011;389;48.710;9.392;2023-05-07T12:10:05;3.10;;;2.37;;
813;SDS011;389;48.710;9.392;2023-05-07T12:12:37;3.10;;;2.90;;
813;SDS011;389;48.710;9.392;2023-05-07T12:15:03;3.00;;;2.33;;
813;SDS011;389;48.710;9.392;2023-05-07T12:17:29;2.43;;;2.23;;
813;SDS011;389;48.710;9.392;2023-05-07T12:19:55;3.53;;;2.50;;
813;SDS011;389;48.710;9.392;2023-05-07T12:22:21;3.40;;;2.73;;
813;SDS011;389;48.710;9.392;2023-05-07T12:24:48;2.43;;;2.33;;
813;SDS011;389;48.710;9.392;2023-05-07T12:27:15;2.90;;;2.70;;
813;SDS011;389;48.710;9.392;2023-05-07T12:29:47;2.60;;;2.40;;
813;SDS011;389;48.710;9.392;2023-05-07T12:32:14;2.50;;;2.30;;
813;SDS011;389;48.710;9.392;2023-05-07T12:34:44;2.53;;;2.43;;
813;SDS011;389;48.710;9.392;2023-05-07T12:37:10;2.90;;;2.60;;
813;SDS011;389;48.710;9.392;2023-05-07T12:39:37;2.77;;;2.57;;
813;SDS011;389;48.710;9.392;2023-05-07T12:42:03;2.10;;;2.00;;
813;SDS011;389;48.710;9.392;2023-05-07T12:44:30;3.17;;;2.57;;
813;SDS011;389;48.710;9.392;2023-05-07T12:47:03;2.30;;;2.20;;
813;SDS011;389;48.710;9.392;2023-05-07T12:49:28;1.77;;;1.67;;
813;SDS011;389;48.710;9.392;2023-05-07T12:51:54;2.13;;;1.80;;
813;SDS011;389;48.710;9.392;2023-05-07T12:54:30;2.47;;;2.30;;
813;SDS011;389;48.710;9.392;2023-05-07T12:57:07;2.27;;;2.07;;
813;SDS011;389;48.710;9.392;2023-05-07T13:02:00;2.20;;;2.10;;
813;SDS011;389;48.710;9.392;2023-05-07T13:04:26;2.27;;;2.07;;
813;SDS011;389;48.710;9.392;2023-05-07T13:06:51;3.37;;;2.60;;
813;SDS011;389;48.710;9.392;2023-05-07T13:09:17;2.80;;;2.20;;
813;SDS011;389;48.710;9.392;2023-05-07T13:11:42;2.27;;;2.17;;
813;SDS011;389;48.710;9.392;2023-05-07T13:14:08;2.50;;;2.30;;
813;SDS011;389;48.710;9.392;2023-05-07T13:16:33;3.50;;;2.50;;
813;SDS011;389;48.710;9.392;2023-05-07T13:18:59;2.87;;;2.57;;
813;SDS011;389;48.710;9.392;2023-05-07T13:21:25;2.67;;;2.47;;
813;SDS011;389;48.710;9.392;2023-05-07T13:23:51;6.50;;;2.90;;
813;SDS011;389;48.710;9.392;2023-05-07T13:26:17;4.00;;;3.10;;
813;SDS011;389;48.710;9.392;2023-05-07T13:28:43;6.10;;;3.87;;
813;SDS011;389;48.710;9.392;2023-05-07T13:31:09;3.50;;;3.20;;
813;SDS011;389;48.710;9.392;2023-05-07T13:33:34;4.63;;;4.00;;
813;SDS011;389;48.710;9.392;2023-05-07T13:36:00;4.37;;;3.97;;
813;SDS011;389;48.710;9.392;2023-05-07T13:38:29;4.20;;;3.77;;
813;SDS011;389;48.710;9.392;2023-05-07T13:40:54;4.03;;;3.50;;
813;SDS011;389;48.710;9.392;2023-05-07T13:43:20;7.73;;;4.00;;
813;SDS011;389;48.710;9.392;2023-05-07T13:45:45;4.90;;;3.40;;
813;SDS011;389;48.710;9.392;2023-05-07T13:48:11;3.47;;;3.17;;
813;SDS011;389;48.710;9.392;2023-05-07T13:50:36;3.87;;;3.47;;
813;SDS011;389;48.710;9.392;2023-05-07T13:53:02;3.00;;;2.70;;
813;SDS011;389;48.710;9.392;2023-05-07T13:55:28;3.40;;;2.23;;
813;SDS011;389;48.710;9.392;2023-05-07T13:57:57;2.67;;;2.47;;
813;SDS011;389;48.710;9.392;2023-05-07T14:00:25;2.50;;;2.30;;
813;SDS011;389;48.710;9.392;2023-05-07T14:02:51;3.23;;;2.70;;
813;SDS011;389;48.710;9.392;2023-05-07T14:05:17;3.20;;;2.43;;
813;SDS011;389;48.710;9.392;2023-05-07T14:07:44;2.57;;;2.37;;
813;SDS011;389;48.710;9.392;2023-05-07T14:10:10;5.30;;;3.20;;
813;SDS011;389;48.710;9.392;2023-05-07T14:12:36;2.80;;;2.47;;
813;SDS011;389;48.710;9.392;2023-05-07T14:15:02;3.70;;;2.20;;
813;SDS011;389;48.710;9.392;2023-05-07T14:17:28;1.80;;;1.70;;
813;SDS011;389;48.710;9.392;2023-05-07T14:19:54;2.17;;;1.97;;
813;SDS011;389;48.710;9.392;2023-05-07T14:22:20;4.17;;;2.40;;
813;SDS011;389;48.710;9.392;2023-05-07T14:24:47;2.40;;;2.20;;
813;SDS011;389;48.710;9.392;2023-05-07T14:27:13;3.17;;;2.50;;
813;SDS011;389;48.710;9.392;2023-05-07T14:29:38;2.63;;;2.17;;
813;SDS011;389;48.710;9.392;2023-05-07T14:32:04;4.10;;;2.50;;
813;SDS011;389;48.710;9.392;2023-05-07T14:34:30;4.20;;;2.23;;
813;SDS011;389;48.710;9.392;2023-05-07T14:36:56;3.57;;;2.37;;
813;SDS011;389;48.710;9.392;2023-05-07T14:39:21;4.90;;;2.40;;
813;SDS011;389;48.710;9.392;2023-05-07T14:41:47;3.63;;;2.20;;
813;SDS011;389;48.710;9.392;2023-05-07T14:44:12;5.40;;;2.57;;
813;SDS011;389;48.710;9.392;2023-05-07T14:46:38;3.73;;;2.30;;
813;SDS011;389;48.710;9.392;2023-05-07T14:49:04;3.00;;;2.30;;
813;SDS011;389;48.710;9.392;2023-05-07T14:51:29;2.67;;;2.47;;
813;SDS011;389;48.710;9.392;2023-05-07T14:53:55;2.30;;;2.10;;
813;SDS011;389;48.710;9.392;2023-05-07T14:56:21;3.60;;;2.30;;
813;SDS011;389;48.710;9.392;2023-05-07T14:58:47;3.17;;;2.40;;
813;SDS011;389;48.710;9.392;2023-05-07T15:01:16;5.03;;;2.73;;
813;SDS011;389;48.710;9.392;2023-05-07T15:03:41;3.97;;;2.80;;
813;SDS011;389;48.710;9.392;2023-05-07T15:06:07;4.33;;;2.50;;
813;SDS011;389;48.710;9.392;2023-05-07T15:08:33;2.40;;;2.20;;
813;SDS011;389;48.710;9.392;2023-05-07T15:10:58;3.77;;;2.30;;
813;SDS011;389;48.710;9.392;2023-05-07T15:13:24;3.20;;;2.63;;
813;SDS011;389;48.710;9.392;2023-05-07T15:15:49;4.73;;;2.83;;
813;SDS011;389;48.710;9.392;2023-05-07T15:18:15;5.20;;;2.70;;
813;SDS011;389;48.710;9.392;2023-05-07T15:20:41;7.10;;;3.10;;
813;SDS011;389;48.710;9.392;2023-05-07T15:23:07;3.93;;;3.53;;
813;SDS011;389;48.710;9.392;2023-05-07T15:25:35;4.20;;;2.97;;
813;SDS011;389;48.710;9.392;2023-05-07T15:28:01;4.90;;;2.60;;
813;SDS011;389;48.710;9.392;2023-05-07T15:30:27;6.43;;;3.80;;
813;SDS011;389;48.710;9.392;2023-05-07T15:32:53;3.10;;;2.80;;
813;SDS011;389;48.710;9.392;2023-05-07T15:35:18;3.90;;;2.90;;
813;SDS011;389;48.710;9.392;2023-05-07T15:37:46;10.23;;;3.10;;
813;SDS011;389;48.710;9.392;2023-05-07T15:40:15;5.27;;;3.27;;
813;SDS011;389;48.710;9.392;2023-05-07T15:42:41;3.40;;;3.10;;
813;SDS011;389;48.710;9.392;2023-05-07T15:45:07;5.03;;;3.40;;
813;SDS011;389;48.710;9.392;2023-05-07T15:47:34;5.23;;;3.63;;
813;SDS011;389;48.710;9.392;2023-05-07T15:50:00;4.10;;;3.70;;
813;SDS011;389;48.710;9.392;2023-05-07T15:52:39;7.23;;;3.50;;
813;SDS011;389;48.710;9.392;2023-05-07T15:55:07;4.00;;;3.50;;
813;SDS011;389;48.710;9.392;2023-05-07T15:57:33;4.07;;;3.67;;
813;SDS011;389;48.710;9.392;2023-05-07T15:59:59;4.67;;;3.50;;
813;SDS011;389;48.710;9.392;2023-05-07T16:02:25;5.70;;;4.00;;
813;SDS011;389;48.710;9.392;2023-05-07T16:04:57;5.70;;;3.70;;
813;SDS011;389;48.710;9.392;2023-05-07T16:07:22;4.40;;;4.00;;
813;SDS011;389;48.710;9.392;2023-05-07T16:09:48;4.37;;;3.60;;
813;SDS011;389;48.710;9.392;2023-05-07T16:12:14;4.33;;;3.00;;
813;SDS011;389;48.710;9.392;2023-05-07T16:14:44;3.80;;;3.40;;
813;SDS011;389;48.710;9.392;2023-05-07T16:17:10;3.73;;;3.43;;
813;SDS011;389;48.710;9.392;2023-05-07T16:19:36;4.87;;;4.27;;